createdAt,value
2023-04-18T00:04:07.880Z,3.57
2023-04-18T00:09:12.010Z,3.54
2023-04-18T00:14:15.836Z,3.49
2023-04-18T00:19:20.394Z,3.41
2023-04-18T00:24:24.452Z,3.21
2023-04-18T00:29:28.691Z,3.19
2023-04-18T00:34:31.821Z,3.17
2023-04-18T00:39:38.423Z,3.06
2023-04-18T00:44:42.436Z,3.17
2023-04-18T00:49:48.050Z,3.18
2023-04-18T00:54:52.741Z,3.20
2023-04-18T00:59:57.000Z,3.18
2023-04-18T01:05:00.888Z,3.23
2023-04-18T01:10:04.805Z,3.12
2023-04-18T01:15:09.226Z,3.04
2023-04-18T01:20:14.290Z,2.94
2023-04-18T01:25:18.141Z,2.86
2023-04-18T01:30:21.281Z,2.97
2023-04-18T01:35:25.389Z,2.93
2023-04-18T01:40:30.109Z,2.81
2023-04-18T01:45:33.990Z,2.74
2023-04-18T01:50:37.894Z,2.68
2023-04-18T01:55:40.965Z,2.63
2023-04-18T02:00:44.606Z,2.59
2023-04-18T02:05:48.672Z,2.51
2023-04-18T02:10:52.285Z,2.51
2023-04-18T02:15:57.424Z,2.50
2023-04-18T02:21:01.259Z,2.37
2023-04-18T02:26:05.479Z,2.40
2023-04-18T02:31:14.856Z,2.38
2023-04-18T02:36:18.240Z,2.40
2023-04-18T02:41:22.444Z,2.41
2023-04-18T02:46:26.385Z,2.36
2023-04-18T02:51:30.422Z,2.33
2023-04-18T02:56:40.228Z,2.16
2023-04-18T03:01:56.364Z,2.08
2023-04-18T03:07:00.500Z,2.06
2023-04-18T03:12:06.831Z,2.03
2023-04-18T03:17:13.177Z,1.91
2023-04-18T03:22:20.322Z,1.95
2023-04-18T03:27:32.167Z,1.97
2023-04-18T03:32:36.624Z,1.89
2023-04-18T03:37:40.303Z,1.95
2023-04-18T03:42:46.357Z,1.86
2023-04-18T03:47:49.674Z,1.89
2023-04-18T03:52:53.901Z,1.83
2023-04-18T03:57:59.368Z,1.80
2023-04-18T04:03:07.359Z,1.78
2023-04-18T04:08:10.690Z,1.88
2023-04-18T04:13:14.264Z,1.82
2023-04-18T04:18:17.775Z,1.86
2023-04-18T04:23:23.164Z,1.94
2023-04-18T04:28:29.076Z,1.91
2023-04-18T04:33:39.235Z,1.94
2023-04-18T04:38:49.188Z,2.15
2023-04-18T04:43:58.019Z,2.31
2023-04-18T04:49:07.282Z,2.47
2023-04-18T04:54:11.231Z,2.53
2023-04-18T04:59:15.344Z,2.63
2023-04-18T05:04:21.395Z,2.92
2023-04-18T05:09:24.968Z,3.28
2023-04-18T05:14:28.145Z,3.79
2023-04-18T05:19:31.370Z,4.30
2023-04-18T05:24:37.218Z,4.89
2023-04-18T05:29:40.687Z,5.48
2023-04-18T05:34:44.221Z,5.92
2023-04-18T05:39:47.530Z,6.32
2023-04-18T05:44:51.044Z,6.88
2023-04-18T05:49:56.049Z,7.31
2023-04-18T05:54:59.658Z,7.63
2023-04-18T06:00:02.798Z,8.04
2023-04-18T06:05:16.772Z,8.42
2023-04-18T06:10:21.022Z,8.70
2023-04-18T06:15:25.338Z,9.03
2023-04-18T06:20:29.207Z,10.91
2023-04-18T06:25:33.096Z,13.58
2023-04-18T06:30:37.048Z,13.39
2023-04-18T06:35:41.808Z,14.54
2023-04-18T06:40:44.962Z,14.46
2023-04-18T06:45:49.093Z,15.50
2023-04-18T06:50:52.073Z,16.38
2023-04-18T06:55:55.135Z,16.55
2023-04-18T07:00:59.253Z,16.40
2023-04-18T07:06:03.602Z,17.70
2023-04-18T07:11:07.221Z,18.17
2023-04-18T07:16:10.901Z,16.99
2023-04-18T07:21:14.967Z,17.41
2023-04-18T07:26:18.124Z,16.86
2023-04-18T07:31:21.781Z,16.51
2023-04-18T07:36:26.714Z,17.17
2023-04-18T07:41:31.022Z,17.01
2023-04-18T07:46:35.208Z,17.00
2023-04-18T07:51:38.860Z,16.67
2023-04-18T07:56:42.934Z,17.71
2023-04-18T08:01:47.057Z,16.85
2023-04-18T08:06:51.455Z,17.15
2023-04-18T08:11:57.223Z,17.08
2023-04-18T08:17:01.276Z,15.68
2023-04-18T08:22:12.239Z,15.74
2023-04-18T08:27:16.145Z,15.40
2023-04-18T08:32:19.811Z,16.41
2023-04-18T08:37:23.466Z,16.77
2023-04-18T08:42:27.971Z,16.43
2023-04-18T08:47:32.231Z,16.80
2023-04-18T08:52:38.037Z,17.96
2023-04-18T08:57:42.022Z,17.71
2023-04-18T09:02:47.437Z,16.72
2023-04-18T09:07:53.796Z,16.29
2023-04-18T09:12:58.638Z,17.05
2023-04-18T09:18:03.562Z,17.31
2023-04-18T09:23:12.908Z,17.54
2023-04-18T09:28:29.977Z,18.06
2023-04-18T09:33:34.322Z,17.61
2023-04-18T09:38:41.727Z,18.31
2023-04-18T09:43:47.182Z,17.81
2023-04-18T09:48:51.078Z,18.67
2023-04-18T09:53:55.426Z,18.46
2023-04-18T09:59:43.378Z,18.90
2023-04-18T10:04:49.525Z,18.54
2023-04-18T10:09:53.588Z,19.31
2023-04-18T10:14:57.514Z,20.08
2023-04-18T10:20:07.332Z,18.16
2023-04-18T10:25:10.979Z,18.25
2023-04-18T10:30:15.836Z,18.10
2023-04-18T10:35:21.862Z,16.93
2023-04-18T10:40:35.498Z,15.82
2023-04-18T10:45:39.720Z,15.05
2023-04-18T10:51:14.582Z,14.34
2023-04-18T10:56:18.940Z,14.01
2023-04-18T11:01:32.646Z,14.06
2023-04-18T11:06:49.182Z,13.96
2023-04-18T11:12:06.358Z,13.15
2023-04-18T11:17:21.329Z,13.31
2023-04-18T11:22:25.149Z,13.45
2023-04-18T11:27:30.335Z,15.35
2023-04-18T11:32:36.392Z,14.61
2023-04-18T11:37:41.191Z,13.52
2023-04-18T11:42:44.959Z,13.58
2023-04-18T11:47:48.578Z,13.71
2023-04-18T11:52:54.420Z,13.74
2023-04-18T11:57:59.073Z,14.32
2023-04-18T12:03:05.032Z,15.68
2023-04-18T12:08:19.401Z,14.98
2023-04-18T12:13:31.695Z,14.62
2023-04-18T12:18:35.413Z,14.32
2023-04-18T12:23:42.149Z,14.41
2023-04-18T12:28:46.197Z,15.52
2023-04-18T12:33:50.768Z,15.01
2023-04-18T12:38:54.777Z,16.16
2023-04-18T12:43:57.874Z,15.87
2023-04-18T12:49:02.044Z,15.76
2023-04-18T12:54:05.865Z,15.36
2023-04-18T12:59:09.522Z,15.67
2023-04-18T13:04:13.534Z,15.65
2023-04-18T13:09:18.050Z,15.02
2023-04-18T13:14:21.614Z,14.18
2023-04-18T13:19:25.714Z,13.50
2023-04-18T13:24:29.238Z,13.17
2023-04-18T13:29:32.733Z,13.06
2023-04-18T13:34:40.278Z,13.35
2023-04-18T13:39:44.296Z,15.77
2023-04-18T13:44:48.413Z,17.87
2023-04-18T13:49:51.792Z,16.64
2023-04-18T13:54:56.254Z,15.80
2023-04-18T13:59:59.994Z,15.15
2023-04-18T14:05:03.233Z,14.53
2023-04-18T14:10:07.461Z,14.08
2023-04-18T14:15:12.181Z,13.28
2023-04-18T14:20:19.358Z,12.65
2023-04-18T14:25:23.075Z,12.59
2023-04-18T14:30:27.033Z,12.37
2023-04-18T14:35:31.613Z,12.37
2023-04-18T14:40:34.840Z,12.35
2023-04-18T14:45:38.521Z,12.44
2023-04-18T14:50:41.864Z,12.63
2023-04-18T14:55:45.875Z,12.97
2023-04-18T15:00:49.586Z,12.94
2023-04-18T15:05:54.136Z,12.72
2023-04-18T15:10:57.569Z,12.32
2023-04-18T15:16:01.755Z,12.11
2023-04-18T15:21:06.077Z,11.94
2023-04-18T15:26:10.175Z,11.69
2023-04-18T15:38:24.358Z,12.74
2023-04-18T15:43:28.351Z,12.80
2023-04-18T15:48:36.733Z,12.86
2023-04-18T15:53:40.590Z,13.26
2023-04-18T15:58:44.604Z,12.63
2023-04-18T16:03:48.511Z,12.09
2023-04-18T16:08:52.271Z,11.89
2023-04-18T16:13:58.525Z,11.77
2023-04-18T16:19:02.277Z,11.15
2023-04-18T16:24:06.816Z,11.08
2023-04-18T16:29:10.538Z,10.56
2023-04-18T16:34:16.137Z,10.54
2023-04-18T16:39:20.171Z,10.93
2023-04-18T16:44:23.887Z,10.94
2023-04-18T16:49:27.786Z,10.75
2023-04-18T16:54:31.452Z,10.62
2023-04-18T16:59:37.023Z,10.29
2023-04-18T17:04:42.620Z,10.27
2023-04-18T17:09:46.914Z,10.35
2023-04-18T17:14:50.235Z,10.04
2023-04-18T17:19:54.012Z,9.74
2023-04-18T17:24:59.205Z,9.41
2023-04-18T17:30:03.615Z,8.96
2023-04-18T17:35:08.395Z,9.12
2023-04-18T17:40:14.772Z,8.31
2023-04-18T17:45:20.787Z,8.53
2023-04-18T17:50:24.960Z,7.60
2023-04-18T17:55:28.432Z,7.60
2023-04-18T18:00:31.870Z,7.43
2023-04-18T18:05:35.102Z,7.38
2023-04-18T18:10:39.489Z,7.56
2023-04-18T18:15:43.662Z,7.59
2023-04-18T18:20:47.299Z,7.13
2023-04-18T18:25:52.395Z,6.92
2023-04-18T18:30:56.398Z,7.34
2023-04-18T18:36:00.789Z,6.80
2023-04-18T18:41:05.014Z,6.50
2023-04-18T18:46:08.918Z,6.22
2023-04-18T18:51:12.996Z,6.12
2023-04-18T18:56:16.646Z,6.48
2023-04-18T19:01:20.855Z,5.73
2023-04-18T19:06:24.457Z,5.66
2023-04-18T19:11:28.562Z,5.16
2023-04-18T19:16:36.220Z,5.43
2023-04-18T19:21:43.013Z,5.71
2023-04-18T19:26:48.017Z,5.59
2023-04-18T19:31:51.880Z,5.68
2023-04-18T19:36:55.135Z,5.39
2023-04-18T19:41:59.756Z,5.31
2023-04-18T19:47:04.086Z,5.38
2023-04-18T19:52:07.222Z,5.01
2023-04-18T19:57:10.787Z,4.72
2023-04-18T20:02:14.552Z,5.39
2023-04-18T20:07:18.665Z,5.24
2023-04-18T20:12:21.819Z,4.43
2023-04-18T20:17:27.113Z,4.58
2023-04-18T20:22:32.564Z,4.78
2023-04-18T20:27:36.632Z,4.48
2023-04-18T20:32:39.846Z,4.43
2023-04-18T20:37:44.913Z,4.34
2023-04-18T20:42:48.173Z,4.21
2023-04-18T20:47:51.839Z,3.98
2023-04-18T20:52:55.668Z,3.97
2023-04-18T20:57:59.310Z,4.22
2023-04-18T21:03:03.820Z,4.50
2023-04-18T21:08:07.145Z,4.09
2023-04-18T21:13:12.772Z,4.38
2023-04-18T21:18:16.384Z,4.06
2023-04-18T21:23:20.108Z,4.42
2023-04-18T21:28:24.096Z,4.11
2023-04-18T21:33:27.605Z,4.01
2023-04-18T21:38:31.085Z,4.19
2023-04-18T21:43:34.684Z,4.22
2023-04-18T21:48:39.761Z,3.87
2023-04-18T21:53:43.368Z,3.83
2023-04-18T21:58:46.619Z,3.60
2023-04-18T22:03:49.901Z,3.20
2023-04-18T22:08:54.316Z,3.69
2023-04-18T22:13:58.415Z,3.42
2023-04-18T22:19:02.676Z,3.68
2023-04-18T22:24:06.951Z,2.97
2023-04-18T22:29:10.541Z,3.05
2023-04-18T22:34:14.864Z,2.97
2023-04-18T22:39:23.181Z,3.02
2023-04-18T22:44:26.744Z,3.31
2023-04-18T22:49:30.399Z,2.51
2023-04-18T22:54:34.816Z,3.25
2023-04-18T22:59:38.744Z,3.26
2023-04-18T23:04:42.556Z,3.09
2023-04-18T23:09:46.579Z,2.55
2023-04-18T23:14:50.855Z,2.82
2023-04-18T23:19:53.859Z,2.99
2023-04-18T23:24:57.863Z,2.77
2023-04-18T23:30:01.046Z,2.95
2023-04-18T23:35:07.159Z,3.01
2023-04-18T23:40:11.041Z,2.89
2023-04-18T23:45:15.273Z,2.95
2023-04-18T23:50:19.236Z,3.14
2023-04-18T23:55:23.976Z,3.88
